SCAT 040600Z AUTO 34004KT 280V360 9000 OVC012/// 18/15 Q1012
From batch tds/metars/production/2023/2/4/h06_m24_metars.cache.csv.gz
Observed at (about 2 hours ago)
Identifier SCAT
SCAT 040500Z AUTO 31006KT 280V350 9999 OVC014/// 18/15 Q1012
From batch tds/metars/production/2023/2/4/h05_m24_metars.cache.csv.gz
Observed at (about 3 hours ago)
Identifier SCAT
SCAT 040448Z AUTO 32006KT 270V010 9999 OVC014/// 18/15 Q1012
From batch tds/metars/production/2023/2/4/h04_m59_metars.cache.csv.gz
Observed at (about 4 hours ago)
Identifier SCAT
SCAT 040300Z AUTO 29006KT 9999 OVC016/// 18/14 Q1012
From batch tds/metars/production/2023/2/4/h03_m27_metars.cache.csv.gz
Observed at (about 5 hours ago)
Identifier SCAT
SCAT 040200Z AUTO 24006KT 9999 OVC017/// 18/14 Q1012
From batch tds/metars/production/2023/2/4/h02_m20_metars.cache.csv.gz
Observed at (about 6 hours ago)
Identifier SCAT
SCAT 040100Z AUTO 24006KT 9999 OVC017/// 18/14 Q1012
From batch tds/metars/production/2023/2/4/h01_m29_metars.cache.csv.gz
Observed at (about 7 hours ago)
Identifier SCAT
SCAT 040000Z AUTO 26007KT 9000 OVC018/// 18/14 Q1011
From batch tds/metars/production/2023/2/4/h00_m25_metars.cache.csv.gz
Observed at (about 8 hours ago)
Identifier SCAT
SCAT 032300Z 26009KT 9999 FEW020 19/15 Q1010
From batch tds/metars/production/2023/2/3/h23_m27_metars.cache.csv.gz
Observed at (about 9 hours ago)
Identifier SCAT
SCAT 032200Z 26008KT 230V300 9999 SCT020 21/15 Q1010
From batch tds/metars/production/2023/2/3/h22_m28_metars.cache.csv.gz
Observed at (about 10 hours ago)
Identifier SCAT
SCAT 032100Z 26009KT 220V300 9999 FEW020 22/15 Q1011
From batch tds/metars/production/2023/2/3/h21_m26_metars.cache.csv.gz
Observed at (about 11 hours ago)
Identifier SCAT
SCAT 032000Z VRB10KT CAVOK 23/15 Q1011
From batch tds/metars/production/2023/2/3/h20_m20_metars.cache.csv.gz
Observed at (about 12 hours ago)
Identifier SCAT
SCAT 031900Z 29003KT 260V330 9999 FEW025 24/15 Q1011
From batch tds/metars/production/2023/2/3/h19_m22_metars.cache.csv.gz
Observed at (about 13 hours ago)
Identifier SCAT
SCAT 031800Z 32009KT 260V360 9999 BKN025 22/15 Q1012
From batch tds/metars/production/2023/2/3/h18_m26_metars.cache.csv.gz
Observed at (about 14 hours ago)
Identifier SCAT
SCAT 031700Z 36010KT 330V040 9999 BKN020 22/15 Q1013
From batch tds/metars/production/2023/2/3/h17_m20_metars.cache.csv.gz
Observed at (about 15 hours ago)
Identifier SCAT
SCAT 031600Z 30009KT 9999 BKN020 19/16 Q1013
From batch tds/metars/production/2023/2/3/h16_m26_metars.cache.csv.gz
Observed at (about 16 hours ago)
Identifier SCAT
SCAT 031500Z 32007KT 8000 SCT009 OVC015 18/15 Q1014
From batch tds/metars/production/2023/2/3/h15_m26_metars.cache.csv.gz
Observed at (about 17 hours ago)
Identifier SCAT
SCAT 031400Z 34009KT 9999 SCT012 OVC015 18/15 Q1014
From batch tds/metars/production/2023/2/3/h14_m23_metars.cache.csv.gz
Observed at (about 18 hours ago)
Identifier SCAT
SCAT 031300Z 36009KT 9999 SCT012 OVC015 17/14 Q1014
From batch tds/metars/production/2023/2/3/h13_m26_metars.cache.csv.gz
Observed at (about 19 hours ago)
Identifier SCAT
SCAT 031200Z 33005KT 290V010 9999 OVC012 17/14 Q1014
From batch tds/metars/production/2023/2/3/h12_m19_metars.cache.csv.gz
Observed at (about 20 hours ago)
Identifier SCAT
SCAT 031100Z AUTO 33005KT 9999 OVC011/// 17/14 Q1013
From batch tds/metars/production/2023/2/3/h11_m20_metars.cache.csv.gz
Observed at (about 21 hours ago)
Identifier SCAT
SCAT 031000Z AUTO 32005KT 9999 OVC012/// 17/14 Q1012
From batch tds/metars/production/2023/2/3/h10_m22_metars.cache.csv.gz
Observed at (about 22 hours ago)
Identifier SCAT
SCAT 030900Z AUTO 02003KT 330V070 9999 OVC012/// 17/14 Q1012
From batch tds/metars/production/2023/2/3/h09_m26_metars.cache.csv.gz
Observed at (about 23 hours ago)
Identifier SCAT
talk